sensor_id;sensor_type;location;lat;lon;timestamp;temperature;humidity
16995;DHT22;8614;48.522;9.206;2023-05-07T00:02:07;13.40;99.90
16995;DHT22;8614;48.522;9.206;2023-05-07T00:04:34;13.30;99.90
16995;DHT22;8614;48.522;9.206;2023-05-07T00:07:03;13.30;99.90
16995;DHT22;8614;48.522;9.206;2023-05-07T00:09:31;13.30;99.90
16995;DHT22;8614;48.522;9.206;2023-05-07T00:11:58;13.30;99.90
16995;DHT22;8614;48.522;9.206;2023-05-07T00:14:25;13.30;99.90
16995;DHT22;8614;48.522;9.206;2023-05-07T00:16:52;13.20;99.90
16995;DHT22;8614;48.522;9.206;2023-05-07T00:19:18;13.30;99.90
16995;DHT22;8614;48.522;9.206;2023-05-07T00:21:45;13.20;99.90
16995;DHT22;8614;48.522;9.206;2023-05-07T00:24:12;13.20;99.90
16995;DHT22;8614;48.522;9.206;2023-05-07T00:26:40;13.20;99.90
16995;DHT22;8614;48.522;9.206;2023-05-07T00:29:07;13.20;99.90
16995;DHT22;8614;48.522;9.206;2023-05-07T00:31:34;13.20;99.90
16995;DHT22;8614;48.522;9.206;2023-05-07T00:34:00;13.20;99.90
16995;DHT22;8614;48.522;9.206;2023-05-07T00:36:27;13.10;99.90
16995;DHT22;8614;48.522;9.206;2023-05-07T00:38:56;13.10;99.90
16995;DHT22;8614;48.522;9.206;2023-05-07T00:41:23;13.10;99.90
16995;DHT22;8614;48.522;9.206;2023-05-07T00:43:51;13.10;99.90
16995;DHT22;8614;48.522;9.206;2023-05-07T00:46:20;13.00;99.90
16995;DHT22;8614;48.522;9.206;2023-05-07T00:48:48;13.00;99.90
16995;DHT22;8614;48.522;9.206;2023-05-07T00:51:16;13.00;99.90
16995;DHT22;8614;48.522;9.206;2023-05-07T00:53:43;13.00;99.90
16995;DHT22;8614;48.522;9.206;2023-05-07T00:56:11;13.00;99.90
16995;DHT22;8614;48.522;9.206;2023-05-07T00:58:38;13.00;99.90
16995;DHT22;8614;48.522;9.206;2023-05-07T01:01:07;13.00;99.90
16995;DHT22;8614;48.522;9.206;2023-05-07T01:03:34;12.90;99.90
16995;DHT22;8614;48.522;9.206;2023-05-07T01:06:01;12.90;99.90
16995;DHT22;8614;48.522;9.206;2023-05-07T01:08:29;12.90;99.90
16995;DHT22;8614;48.522;9.206;2023-05-07T01:10:57;12.90;99.90
16995;DHT22;8614;48.522;9.206;2023-05-07T01:13:24;12.90;99.90
16995;DHT22;8614;48.522;9.206;2023-05-07T01:15:51;12.80;99.90
16995;DHT22;8614;48.522;9.206;2023-05-07T01:18:19;12.80;99.90
16995;DHT22;8614;48.522;9.206;2023-05-07T01:20:47;12.80;99.90
16995;DHT22;8614;48.522;9.206;2023-05-07T01:23:15;12.70;99.90
16995;DHT22;8614;48.522;9.206;2023-05-07T01:25:42;12.70;99.90
16995;DHT22;8614;48.522;9.206;2023-05-07T01:28:10;12.70;99.90
16995;DHT22;8614;48.522;9.206;2023-05-07T01:30:40;12.70;99.90
16995;DHT22;8614;48.522;9.206;2023-05-07T01:33:11;12.70;99.90
16995;DHT22;8614;48.522;9.206;2023-05-07T01:35:42;12.70;99.90
16995;DHT22;8614;48.522;9.206;2023-05-07T01:38:10;12.60;99.90
16995;DHT22;8614;48.522;9.206;2023-05-07T01:40:39;12.60;99.90
16995;DHT22;8614;48.522;9.206;2023-05-07T01:43:06;12.50;99.90
16995;DHT22;8614;48.522;9.206;2023-05-07T01:45:35;12.50;99.90
16995;DHT22;8614;48.522;9.206;2023-05-07T01:48:02;12.50;99.90
16995;DHT22;8614;48.522;9.206;2023-05-07T01:50:31;12.50;99.90
16995;DHT22;8614;48.522;9.206;2023-05-07T01:52:58;12.50;99.90
16995;DHT22;8614;48.522;9.206;2023-05-07T01:55:25;12.40;99.90
16995;DHT22;8614;48.522;9.206;2023-05-07T01:57:53;12.40;99.90
16995;DHT22;8614;48.522;9.206;2023-05-07T02:00:21;12.40;99.90
16995;DHT22;8614;48.522;9.206;2023-05-07T02:02:48;12.40;99.90
16995;DHT22;8614;48.522;9.206;2023-05-07T02:05:27;12.40;99.90
16995;DHT22;8614;48.522;9.206;2023-05-07T02:08:11;12.30;99.90
16995;DHT22;8614;48.522;9.206;2023-05-07T02:10:38;12.30;99.90
16995;DHT22;8614;48.522;9.206;2023-05-07T02:13:07;12.30;99.90
16995;DHT22;8614;48.522;9.206;2023-05-07T02:15:34;12.30;99.90
16995;DHT22;8614;48.522;9.206;2023-05-07T02:18:03;12.20;99.90
16995;DHT22;8614;48.522;9.206;2023-05-07T02:20:31;12.20;99.90
16995;DHT22;8614;48.522;9.206;2023-05-07T02:22:58;12.10;99.90
16995;DHT22;8614;48.522;9.206;2023-05-07T02:25:28;12.10;99.90
16995;DHT22;8614;48.522;9.206;2023-05-07T02:27:55;12.10;99.90
16995;DHT22;8614;48.522;9.206;2023-05-07T02:30:33;12.10;99.90
16995;DHT22;8614;48.522;9.206;2023-05-07T02:33:01;12.00;99.90
16995;DHT22;8614;48.522;9.206;2023-05-07T02:35:28;12.00;99.90
16995;DHT22;8614;48.522;9.206;2023-05-07T02:37:54;12.00;99.90
16995;DHT22;8614;48.522;9.206;2023-05-07T02:40:23;11.90;99.90
16995;DHT22;8614;48.522;9.206;2023-05-07T02:42:50;11.90;99.90
16995;DHT22;8614;48.522;9.206;2023-05-07T02:45:17;11.90;99.90
16995;DHT22;8614;48.522;9.206;2023-05-07T02:47:46;11.90;99.90
16995;DHT22;8614;48.522;9.206;2023-05-07T02:50:13;11.90;99.90
16995;DHT22;8614;48.522;9.206;2023-05-07T02:52:40;11.80;99.90
16995;DHT22;8614;48.522;9.206;2023-05-07T02:55:08;11.70;99.90
16995;DHT22;8614;48.522;9.206;2023-05-07T02:57:34;11.70;99.90
16995;DHT22;8614;48.522;9.206;2023-05-07T03:00:11;11.70;99.90
16995;DHT22;8614;48.522;9.206;2023-05-07T03:02:40;11.60;99.90
16995;DHT22;8614;48.522;9.206;2023-05-07T03:05:08;11.60;99.90
16995;DHT22;8614;48.522;9.206;2023-05-07T03:07:35;11.60;99.90
16995;DHT22;8614;48.522;9.206;2023-05-07T03:10:02;11.60;99.90
16995;DHT22;8614;48.522;9.206;2023-05-07T03:12:30;11.50;99.90
16995;DHT22;8614;48.522;9.206;2023-05-07T03:14:57;11.50;99.90
16995;DHT22;8614;48.522;9.206;2023-05-07T03:17:24;11.40;99.90
16995;DHT22;8614;48.522;9.206;2023-05-07T03:19:51;11.40;99.90
16995;DHT22;8614;48.522;9.206;2023-05-07T03:22:19;11.40;99.90
16995;DHT22;8614;48.522;9.206;2023-05-07T03:24:46;11.30;99.90
16995;DHT22;8614;48.522;9.206;2023-05-07T03:27:13;11.30;99.90
16995;DHT22;8614;48.522;9.206;2023-05-07T03:29:40;11.30;99.90
16995;DHT22;8614;48.522;9.206;2023-05-07T03:32:06;11.30;99.90
16995;DHT22;8614;48.522;9.206;2023-05-07T03:34:34;11.30;99.90
16995;DHT22;8614;48.522;9.206;2023-05-07T03:37:01;11.20;99.90
16995;DHT22;8614;48.522;9.206;2023-05-07T03:39:29;11.20;99.90
16995;DHT22;8614;48.522;9.206;2023-05-07T03:41:57;11.20;99.90
16995;DHT22;8614;48.522;9.206;2023-05-07T03:44:24;11.20;99.90
16995;DHT22;8614;48.522;9.206;2023-05-07T03:46:52;11.10;99.90
16995;DHT22;8614;48.522;9.206;2023-05-07T03:49:19;11.10;99.90
16995;DHT22;8614;48.522;9.206;2023-05-07T03:51:45;11.20;99.90
16995;DHT22;8614;48.522;9.206;2023-05-07T03:54:12;11.20;99.90
16995;DHT22;8614;48.522;9.206;2023-05-07T03:56:44;11.10;99.90
16995;DHT22;8614;48.522;9.206;2023-05-07T03:59:11;11.10;99.90
16995;DHT22;8614;48.522;9.206;2023-05-07T04:01:40;11.10;99.90
16995;DHT22;8614;48.522;9.206;2023-05-07T04:04:07;11.10;99.90
16995;DHT22;8614;48.522;9.206;2023-05-07T04:06:36;11.10;99.90
16995;DHT22;8614;48.522;9.206;2023-05-07T04:09:02;11.10;99.90
16995;DHT22;8614;48.522;9.206;2023-05-07T04:11:30;11.10;99.90
16995;DHT22;8614;48.522;9.206;2023-05-07T04:13:59;11.10;99.90
16995;DHT22;8614;48.522;9.206;2023-05-07T04:16:25;11.20;99.90
16995;DHT22;8614;48.522;9.206;2023-05-07T04:18:52;11.20;99.90
16995;DHT22;8614;48.522;9.206;2023-05-07T04:21:20;11.20;99.90
16995;DHT22;8614;48.522;9.206;2023-05-07T04:23:49;11.20;99.90
16995;DHT22;8614;48.522;9.206;2023-05-07T04:26:16;11.30;99.90
16995;DHT22;8614;48.522;9.206;2023-05-07T04:28:45;11.30;99.90
16995;DHT22;8614;48.522;9.206;2023-05-07T04:31:13;11.30;99.90
16995;DHT22;8614;48.522;9.206;2023-05-07T04:33:40;11.40;99.90
16995;DHT22;8614;48.522;9.206;2023-05-07T04:36:11;11.40;99.90
16995;DHT22;8614;48.522;9.206;2023-05-07T04:38:51;11.50;99.90
16995;DHT22;8614;48.522;9.206;2023-05-07T04:41:19;11.60;99.90
16995;DHT22;8614;48.522;9.206;2023-05-07T04:43:46;11.80;99.90
16995;DHT22;8614;48.522;9.206;2023-05-07T04:46:16;12.00;99.90
16995;DHT22;8614;48.522;9.206;2023-05-07T04:48:43;12.10;99.90
16995;DHT22;8614;48.522;9.206;2023-05-07T04:51:10;12.20;99.90
16995;DHT22;8614;48.522;9.206;2023-05-07T04:53:37;12.40;99.90
16995;DHT22;8614;48.522;9.206;2023-05-07T04:56:05;12.50;99.90
16995;DHT22;8614;48.522;9.206;2023-05-07T04:58:39;12.60;99.90
16995;DHT22;8614;48.522;9.206;2023-05-07T05:01:06;12.70;99.90
16995;DHT22;8614;48.522;9.206;2023-05-07T05:03:34;12.80;99.90
16995;DHT22;8614;48.522;9.206;2023-05-07T05:06:01;12.90;99.90
16995;DHT22;8614;48.522;9.206;2023-05-07T05:08:32;13.20;99.90
16995;DHT22;8614;48.522;9.206;2023-05-07T05:11:00;13.60;99.90
16995;DHT22;8614;48.522;9.206;2023-05-07T05:13:28;13.90;99.90
16995;DHT22;8614;48.522;9.206;2023-05-07T05:15:55;14.40;99.90
16995;DHT22;8614;48.522;9.206;2023-05-07T05:18:24;14.70;99.90
16995;DHT22;8614;48.522;9.206;2023-05-07T05:20:52;15.00;99.90
16995;DHT22;8614;48.522;9.206;2023-05-07T05:23:19;15.30;99.90
16995;DHT22;8614;48.522;9.206;2023-05-07T05:25:47;15.70;99.90
16995;DHT22;8614;48.522;9.206;2023-05-07T05:28:14;16.20;99.90
16995;DHT22;8614;48.522;9.206;2023-05-07T05:30:41;16.40;99.90
16995;DHT22;8614;48.522;9.206;2023-05-07T05:33:08;16.60;99.90
16995;DHT22;8614;48.522;9.206;2023-05-07T05:35:35;16.80;99.90
16995;DHT22;8614;48.522;9.206;2023-05-07T05:38:06;17.10;99.90
16995;DHT22;8614;48.522;9.206;2023-05-07T05:40:33;17.30;99.90
16995;DHT22;8614;48.522;9.206;2023-05-07T05:43:00;17.70;99.90
16995;DHT22;8614;48.522;9.206;2023-05-07T05:45:27;17.90;99.90
16995;DHT22;8614;48.522;9.206;2023-05-07T05:47:56;17.90;99.90
16995;DHT22;8614;48.522;9.206;2023-05-07T05:50:23;17.80;99.90
16995;DHT22;8614;48.522;9.206;2023-05-07T05:52:51;17.60;99.90
16995;DHT22;8614;48.522;9.206;2023-05-07T05:55:21;17.60;99.90
16995;DHT22;8614;48.522;9.206;2023-05-07T05:57:48;17.30;99.90
16995;DHT22;8614;48.522;9.206;2023-05-07T06:00:16;17.10;99.90
16995;DHT22;8614;48.522;9.206;2023-05-07T06:02:46;16.90;99.90
16995;DHT22;8614;48.522;9.206;2023-05-07T06:05:19;17.00;99.90
16995;DHT22;8614;48.522;9.206;2023-05-07T06:07:49;17.00;99.90
16995;DHT22;8614;48.522;9.206;2023-05-07T06:10:16;17.00;99.90
16995;DHT22;8614;48.522;9.206;2023-05-07T06:12:44;17.00;99.90
16995;DHT22;8614;48.522;9.206;2023-05-07T06:15:12;17.00;99.90
16995;DHT22;8614;48.522;9.206;2023-05-07T06:17:40;17.00;99.90
16995;DHT22;8614;48.522;9.206;2023-05-07T06:20:10;17.00;99.90
16995;DHT22;8614;48.522;9.206;2023-05-07T06:22:38;16.90;99.90
16995;DHT22;8614;48.522;9.206;2023-05-07T06:25:06;16.90;99.90
16995;DHT22;8614;48.522;9.206;2023-05-07T06:27:33;17.00;99.90
16995;DHT22;8614;48.522;9.206;2023-05-07T06:30:02;17.20;99.90
16995;DHT22;8614;48.522;9.206;2023-05-07T06:32:29;17.50;99.90
16995;DHT22;8614;48.522;9.206;2023-05-07T06:34:55;17.80;99.90
16995;DHT22;8614;48.522;9.206;2023-05-07T06:37:22;17.90;99.90
16995;DHT22;8614;48.522;9.206;2023-05-07T06:39:56;18.00;99.90
16995;DHT22;8614;48.522;9.206;2023-05-07T06:42:23;18.20;99.90
16995;DHT22;8614;48.522;9.206;2023-05-07T06:44:56;18.50;99.90
16995;DHT22;8614;48.522;9.206;2023-05-07T06:47:24;18.60;99.90
16995;DHT22;8614;48.522;9.206;2023-05-07T06:49:54;18.80;99.90
16995;DHT22;8614;48.522;9.206;2023-05-07T06:52:24;18.90;99.90
16995;DHT22;8614;48.522;9.206;2023-05-07T06:54:52;19.00;99.90
16995;DHT22;8614;48.522;9.206;2023-05-07T06:57:21;19.30;99.90
16995;DHT22;8614;48.522;9.206;2023-05-07T06:59:48;19.40;99.90
16995;DHT22;8614;48.522;9.206;2023-05-07T07:02:15;19.50;99.90
16995;DHT22;8614;48.522;9.206;2023-05-07T07:04:43;19.50;99.90
16995;DHT22;8614;48.522;9.206;2023-05-07T07:07:10;19.40;99.90
16995;DHT22;8614;48.522;9.206;2023-05-07T07:09:38;19.30;99.90
16995;DHT22;8614;48.522;9.206;2023-05-07T07:12:07;19.20;99.90
16995;DHT22;8614;48.522;9.206;2023-05-07T07:14:36;19.30;99.90
16995;DHT22;8614;48.522;9.206;2023-05-07T07:17:03;19.30;99.90
16995;DHT22;8614;48.522;9.206;2023-05-07T07:19:31;19.50;99.90
16995;DHT22;8614;48.522;9.206;2023-05-07T07:22:00;19.80;99.90
16995;DHT22;8614;48.522;9.206;2023-05-07T07:24:28;20.30;99.90
16995;DHT22;8614;48.522;9.206;2023-05-07T07:26:58;20.70;99.90
16995;DHT22;8614;48.522;9.206;2023-05-07T07:29:26;21.10;99.90
16995;DHT22;8614;48.522;9.206;2023-05-07T07:31:54;21.50;99.90
16995;DHT22;8614;48.522;9.206;2023-05-07T07:34:20;22.00;99.90
16995;DHT22;8614;48.522;9.206;2023-05-07T07:36:48;22.50;99.90
16995;DHT22;8614;48.522;9.206;2023-05-07T07:39:19;22.90;99.90
16995;DHT22;8614;48.522;9.206;2023-05-07T07:41:49;23.10;99.90
16995;DHT22;8614;48.522;9.206;2023-05-07T07:44:17;23.20;99.90
16995;DHT22;8614;48.522;9.206;2023-05-07T07:46:49;23.40;99.90
16995;DHT22;8614;48.522;9.206;2023-05-07T07:49:16;23.50;99.90
16995;DHT22;8614;48.522;9.206;2023-05-07T07:51:43;23.30;99.90
16995;DHT22;8614;48.522;9.206;2023-05-07T07:54:12;22.80;99.90
16995;DHT22;8614;48.522;9.206;2023-05-07T07:56:40;22.70;99.90
16995;DHT22;8614;48.522;9.206;2023-05-07T07:59:08;22.20;99.90
16995;DHT22;8614;48.522;9.206;2023-05-07T08:01:38;21.90;99.90
16995;DHT22;8614;48.522;9.206;2023-05-07T08:04:05;21.70;99.90
16995;DHT22;8614;48.522;9.206;2023-05-07T08:06:35;21.40;99.90
16995;DHT22;8614;48.522;9.206;2023-05-07T08:09:02;21.20;99.90
16995;DHT22;8614;48.522;9.206;2023-05-07T08:11:29;21.20;99.90
16995;DHT22;8614;48.522;9.206;2023-05-07T08:13:59;21.00;99.90
16995;DHT22;8614;48.522;9.206;2023-05-07T08:16:26;21.00;99.90
16995;DHT22;8614;48.522;9.206;2023-05-07T08:18:53;20.90;99.90
16995;DHT22;8614;48.522;9.206;2023-05-07T08:21:20;20.70;99.90
16995;DHT22;8614;48.522;9.206;2023-05-07T08:23:47;20.60;99.90
16995;DHT22;8614;48.522;9.206;2023-05-07T08:26:14;20.70;99.90
16995;DHT22;8614;48.522;9.206;2023-05-07T08:28:42;20.80;99.90
16995;DHT22;8614;48.522;9.206;2023-05-07T08:31:10;20.80;99.90
16995;DHT22;8614;48.522;9.206;2023-05-07T08:33:40;20.90;99.90
16995;DHT22;8614;48.522;9.206;2023-05-07T08:36:07;20.90;99.90
16995;DHT22;8614;48.522;9.206;2023-05-07T08:38:34;21.10;99.90
16995;DHT22;8614;48.522;9.206;2023-05-07T08:41:01;21.30;99.90
16995;DHT22;8614;48.522;9.206;2023-05-07T08:43:31;21.60;99.90
16995;DHT22;8614;48.522;9.206;2023-05-07T08:46:00;21.80;99.90
16995;DHT22;8614;48.522;9.206;2023-05-07T08:48:32;22.00;99.90
16995;DHT22;8614;48.522;9.206;2023-05-07T08:51:08;22.20;99.90
16995;DHT22;8614;48.522;9.206;2023-05-07T08:53:35;22.50;99.90
16995;DHT22;8614;48.522;9.206;2023-05-07T08:56:02;22.40;99.90
16995;DHT22;8614;48.522;9.206;2023-05-07T08:58:30;22.60;99.90
16995;DHT22;8614;48.522;9.206;2023-05-07T09:00:58;23.10;99.90
16995;DHT22;8614;48.522;9.206;2023-05-07T09:03:26;23.50;99.90
16995;DHT22;8614;48.522;9.206;2023-05-07T09:05:56;23.80;99.90
16995;DHT22;8614;48.522;9.206;2023-05-07T09:08:25;24.00;99.90
16995;DHT22;8614;48.522;9.206;2023-05-07T09:10:54;24.10;99.90
16995;DHT22;8614;48.522;9.206;2023-05-07T09:13:22;23.90;99.90
16995;DHT22;8614;48.522;9.206;2023-05-07T09:15:50;23.90;99.90
16995;DHT22;8614;48.522;9.206;2023-05-07T09:18:17;24.00;99.90
16995;DHT22;8614;48.522;9.206;2023-05-07T09:20:47;24.30;99.90
16995;DHT22;8614;48.522;9.206;2023-05-07T09:23:18;24.50;99.90
16995;DHT22;8614;48.522;9.206;2023-05-07T09:25:45;24.80;99.90
16995;DHT22;8614;48.522;9.206;2023-05-07T09:28:25;24.90;99.90
16995;DHT22;8614;48.522;9.206;2023-05-07T09:30:55;24.70;99.90
16995;DHT22;8614;48.522;9.206;2023-05-07T09:33:27;25.00;99.90
16995;DHT22;8614;48.522;9.206;2023-05-07T09:35:54;25.20;99.90
16995;DHT22;8614;48.522;9.206;2023-05-07T09:38:23;25.70;99.90
16995;DHT22;8614;48.522;9.206;2023-05-07T09:41:02;26.00;99.90
16995;DHT22;8614;48.522;9.206;2023-05-07T09:43:32;26.20;99.90
16995;DHT22;8614;48.522;9.206;2023-05-07T09:46:06;25.80;99.90
16995;DHT22;8614;48.522;9.206;2023-05-07T09:48:37;25.80;99.90
16995;DHT22;8614;48.522;9.206;2023-05-07T09:51:10;25.90;99.90
16995;DHT22;8614;48.522;9.206;2023-05-07T09:53:45;26.00;99.90
16995;DHT22;8614;48.522;9.206;2023-05-07T10:15:08;26.50;99.90
16995;DHT22;8614;48.522;9.206;2023-05-07T10:17:38;26.60;99.90
16995;DHT22;8614;48.522;9.206;2023-05-07T10:20:07;26.40;99.90
16995;DHT22;8614;48.522;9.206;2023-05-07T10:22:41;26.50;99.90
16995;DHT22;8614;48.522;9.206;2023-05-07T10:25:14;26.30;99.90
16995;DHT22;8614;48.522;9.206;2023-05-07T10:27:42;26.00;99.90
16995;DHT22;8614;48.522;9.206;2023-05-07T10:30:18;26.10;99.90
16995;DHT22;8614;48.522;9.206;2023-05-07T10:32:50;26.20;99.90
16995;DHT22;8614;48.522;9.206;2023-05-07T10:35:26;26.50;99.90
16995;DHT22;8614;48.522;9.206;2023-05-07T10:37:57;26.70;99.90
16995;DHT22;8614;48.522;9.206;2023-05-07T11:30:15;24.10;99.90
16995;DHT22;8614;48.522;9.206;2023-05-07T11:32:47;24.10;99.90
16995;DHT22;8614;48.522;9.206;2023-05-07T11:35:17;24.00;99.90
16995;DHT22;8614;48.522;9.206;2023-05-07T11:37:48;24.00;99.90
16995;DHT22;8614;48.522;9.206;2023-05-07T11:40:16;23.90;99.90
16995;DHT22;8614;48.522;9.206;2023-05-07T11:42:43;23.80;99.90
16995;DHT22;8614;48.522;9.206;2023-05-07T11:45:11;23.70;99.90
16995;DHT22;8614;48.522;9.206;2023-05-07T11:47:38;23.60;99.90
16995;DHT22;8614;48.522;9.206;2023-05-07T11:50:08;23.40;99.90
16995;DHT22;8614;48.522;9.206;2023-05-07T11:52:36;23.20;99.90
16995;DHT22;8614;48.522;9.206;2023-05-07T11:55:05;23.20;99.90
16995;DHT22;8614;48.522;9.206;2023-05-07T11:57:33;23.10;99.90
16995;DHT22;8614;48.522;9.206;2023-05-07T12:00:01;22.90;99.90
16995;DHT22;8614;48.522;9.206;2023-05-07T12:02:39;22.70;99.90
16995;DHT22;8614;48.522;9.206;2023-05-07T12:05:07;22.60;99.90
16995;DHT22;8614;48.522;9.206;2023-05-07T12:07:35;22.60;99.90
16995;DHT22;8614;48.522;9.206;2023-05-07T12:10:04;22.70;99.90
16995;DHT22;8614;48.522;9.206;2023-05-07T12:12:38;22.50;99.90
16995;DHT22;8614;48.522;9.206;2023-05-07T12:15:08;22.50;99.90
16995;DHT22;8614;48.522;9.206;2023-05-07T12:17:35;22.40;99.90
16995;DHT22;8614;48.522;9.206;2023-05-07T12:20:05;22.20;99.90
16995;DHT22;8614;48.522;9.206;2023-05-07T12:22:32;22.10;99.90
16995;DHT22;8614;48.522;9.206;2023-05-07T12:24:59;22.00;99.90
16995;DHT22;8614;48.522;9.206;2023-05-07T12:27:26;21.80;99.90
16995;DHT22;8614;48.522;9.206;2023-05-07T12:29:53;21.60;99.90
16995;DHT22;8614;48.522;9.206;2023-05-07T12:32:21;21.40;99.90
16995;DHT22;8614;48.522;9.206;2023-05-07T12:34:50;21.10;99.90
16995;DHT22;8614;48.522;9.206;2023-05-07T12:37:25;21.00;99.90
16995;DHT22;8614;48.522;9.206;2023-05-07T12:40:04;20.80;99.90
16995;DHT22;8614;48.522;9.206;2023-05-07T12:42:35;20.70;99.90
16995;DHT22;8614;48.522;9.206;2023-05-07T12:45:08;20.50;99.90
16995;DHT22;8614;48.522;9.206;2023-05-07T12:47:35;20.40;99.90
16995;DHT22;8614;48.522;9.206;2023-05-07T12:50:05;20.30;99.90
16995;DHT22;8614;48.522;9.206;2023-05-07T12:52:34;20.20;99.90
16995;DHT22;8614;48.522;9.206;2023-05-07T12:55:04;20.10;99.90
16995;DHT22;8614;48.522;9.206;2023-05-07T12:57:37;20.00;99.90
16995;DHT22;8614;48.522;9.206;2023-05-07T13:00:05;20.00;99.90
16995;DHT22;8614;48.522;9.206;2023-05-07T13:03:02;19.90;99.90
16995;DHT22;8614;48.522;9.206;2023-05-07T13:05:41;19.90;99.90
16995;DHT22;8614;48.522;9.206;2023-05-07T13:08:46;19.90;99.90
16995;DHT22;8614;48.522;9.206;2023-05-07T13:14:17;19.80;99.90
16995;DHT22;8614;48.522;9.206;2023-05-07T13:15:28;19.70;99.90
16995;DHT22;8614;48.522;9.206;2023-05-07T13:18:01;19.50;99.90
16995;DHT22;8614;48.522;9.206;2023-05-07T13:20:46;19.30;99.90
16995;DHT22;8614;48.522;9.206;2023-05-07T13:27:14;18.80;99.90
16995;DHT22;8614;48.522;9.206;2023-05-07T13:29:43;18.50;99.90
16995;DHT22;8614;48.522;9.206;2023-05-07T13:32:10;18.30;99.90
16995;DHT22;8614;48.522;9.206;2023-05-07T13:34:37;18.20;99.90
16995;DHT22;8614;48.522;9.206;2023-05-07T13:37:04;18.00;99.90
16995;DHT22;8614;48.522;9.206;2023-05-07T13:39:35;17.90;99.90
16995;DHT22;8614;48.522;9.206;2023-05-07T13:42:10;17.70;99.90
16995;DHT22;8614;48.522;9.206;2023-05-07T13:44:37;17.50;99.90
16995;DHT22;8614;48.522;9.206;2023-05-07T13:47:07;17.30;99.90
16995;DHT22;8614;48.522;9.206;2023-05-07T13:49:34;17.20;99.90
16995;DHT22;8614;48.522;9.206;2023-05-07T13:52:03;17.10;99.90
16995;DHT22;8614;48.522;9.206;2023-05-07T13:54:31;17.10;99.90
16995;DHT22;8614;48.522;9.206;2023-05-07T13:56:57;17.00;99.90
16995;DHT22;8614;48.522;9.206;2023-05-07T13:59:26;17.00;99.90
16995;DHT22;8614;48.522;9.206;2023-05-07T14:01:53;16.90;99.90
16995;DHT22;8614;48.522;9.206;2023-05-07T14:04:20;16.90;99.90
16995;DHT22;8614;48.522;9.206;2023-05-07T14:06:47;16.90;99.90
16995;DHT22;8614;48.522;9.206;2023-05-07T14:09:14;16.90;99.90
16995;DHT22;8614;48.522;9.206;2023-05-07T14:11:41;16.80;99.90
16995;DHT22;8614;48.522;9.206;2023-05-07T14:14:08;16.80;99.90
16995;DHT22;8614;48.522;9.206;2023-05-07T14:16:37;16.80;99.90
16995;DHT22;8614;48.522;9.206;2023-05-07T14:19:04;16.80;99.90
16995;DHT22;8614;48.522;9.206;2023-05-07T14:21:34;16.70;99.90
16995;DHT22;8614;48.522;9.206;2023-05-07T14:24:03;16.60;99.90
16995;DHT22;8614;48.522;9.206;2023-05-07T14:26:30;16.60;99.90
16995;DHT22;8614;48.522;9.206;2023-05-07T14:28:57;16.70;99.90
16995;DHT22;8614;48.522;9.206;2023-05-07T14:31:25;16.70;99.90
16995;DHT22;8614;48.522;9.206;2023-05-07T14:33:53;16.60;99.90
16995;DHT22;8614;48.522;9.206;2023-05-07T14:36:20;16.60;99.90
16995;DHT22;8614;48.522;9.206;2023-05-07T14:38:48;16.60;99.90
16995;DHT22;8614;48.522;9.206;2023-05-07T14:41:24;16.60;99.90
16995;DHT22;8614;48.522;9.206;2023-05-07T14:57:41;17.00;99.90
16995;DHT22;8614;48.522;9.206;2023-05-07T15:00:09;17.00;99.90
16995;DHT22;8614;48.522;9.206;2023-05-07T15:02:37;17.20;99.90
16995;DHT22;8614;48.522;9.206;2023-05-07T15:05:04;17.30;99.90
16995;DHT22;8614;48.522;9.206;2023-05-07T15:07:31;17.30;99.90
16995;DHT22;8614;48.522;9.206;2023-05-07T15:09:59;17.30;99.90
16995;DHT22;8614;48.522;9.206;2023-05-07T15:12:26;17.30;99.90
16995;DHT22;8614;48.522;9.206;2023-05-07T15:14:54;17.40;99.90
16995;DHT22;8614;48.522;9.206;2023-05-07T15:17:21;17.40;99.90
16995;DHT22;8614;48.522;9.206;2023-05-07T15:19:48;17.50;99.90
16995;DHT22;8614;48.522;9.206;2023-05-07T15:22:15;17.50;99.90
16995;DHT22;8614;48.522;9.206;2023-05-07T15:24:42;17.60;99.90
16995;DHT22;8614;48.522;9.206;2023-05-07T15:27:09;17.60;99.90
16995;DHT22;8614;48.522;9.206;2023-05-07T15:29:36;17.60;99.90
16995;DHT22;8614;48.522;9.206;2023-05-07T15:32:05;17.70;99.90
16995;DHT22;8614;48.522;9.206;2023-05-07T15:34:32;17.70;99.90
16995;DHT22;8614;48.522;9.206;2023-05-07T15:37:04;17.60;99.90
16995;DHT22;8614;48.522;9.206;2023-05-07T15:39:31;17.70;99.90
16995;DHT22;8614;48.522;9.206;2023-05-07T15:41:58;17.80;99.90
16995;DHT22;8614;48.522;9.206;2023-05-07T15:44:25;17.90;99.90
16995;DHT22;8614;48.522;9.206;2023-05-07T15:46:59;17.80;99.90
16995;DHT22;8614;48.522;9.206;2023-05-07T15:49:28;17.80;99.90
16995;DHT22;8614;48.522;9.206;2023-05-07T15:51:57;17.90;99.90
16995;DHT22;8614;48.522;9.206;2023-05-07T15:54:24;17.90;99.90
16995;DHT22;8614;48.522;9.206;2023-05-07T15:56:54;17.90;99.90
16995;DHT22;8614;48.522;9.206;2023-05-07T15:59:21;17.80;99.90
16995;DHT22;8614;48.522;9.206;2023-05-07T16:01:48;17.80;99.90
16995;DHT22;8614;48.522;9.206;2023-05-07T16:04:16;18.00;99.90
16995;DHT22;8614;48.522;9.206;2023-05-07T16:06:44;18.00;99.90
16995;DHT22;8614;48.522;9.206;2023-05-07T16:09:12;18.00;99.90
16995;DHT22;8614;48.522;9.206;2023-05-07T16:11:57;18.10;99.90
16995;DHT22;8614;48.522;9.206;2023-05-07T16:14:34;18.10;99.90
16995;DHT22;8614;48.522;9.206;2023-05-07T16:17:01;18.10;99.90
16995;DHT22;8614;48.522;9.206;2023-05-07T16:19:28;18.20;99.90
16995;DHT22;8614;48.522;9.206;2023-05-07T16:21:56;18.20;99.90
16995;DHT22;8614;48.522;9.206;2023-05-07T16:24:24;18.20;99.90
16995;DHT22;8614;48.522;9.206;2023-05-07T16:26:56;18.20;99.90
16995;DHT22;8614;48.522;9.206;2023-05-07T16:29:24;18.10;99.90
16995;DHT22;8614;48.522;9.206;2023-05-07T16:32:28;18.00;99.90
16995;DHT22;8614;48.522;9.206;2023-05-07T16:35:00;18.00;99.90
16995;DHT22;8614;48.522;9.206;2023-05-07T16:37:29;17.90;99.90
16995;DHT22;8614;48.522;9.206;2023-05-07T16:39:56;17.90;99.90
16995;DHT22;8614;48.522;9.206;2023-05-07T16:42:25;17.80;99.90
16995;DHT22;8614;48.522;9.206;2023-05-07T16:44:52;17.80;99.90
16995;DHT22;8614;48.522;9.206;2023-05-07T16:47:19;17.80;99.90
16995;DHT22;8614;48.522;9.206;2023-05-07T16:49:46;17.70;99.90
16995;DHT22;8614;48.522;9.206;2023-05-07T16:52:14;17.70;99.90
16995;DHT22;8614;48.522;9.206;2023-05-07T16:54:43;17.60;99.90
16995;DHT22;8614;48.522;9.206;2023-05-07T16:57:09;17.60;99.90
16995;DHT22;8614;48.522;9.206;2023-05-07T16:59:36;17.50;99.90
16995;DHT22;8614;48.522;9.206;2023-05-07T17:02:03;17.50;99.90
16995;DHT22;8614;48.522;9.206;2023-05-07T17:05:13;17.40;99.90
16995;DHT22;8614;48.522;9.206;2023-05-07T17:07:40;17.40;99.90
16995;DHT22;8614;48.522;9.206;2023-05-07T17:10:09;17.40;99.90
16995;DHT22;8614;48.522;9.206;2023-05-07T17:12:36;17.40;99.90
16995;DHT22;8614;48.522;9.206;2023-05-07T17:15:03;17.30;99.90
16995;DHT22;8614;48.522;9.206;2023-05-07T17:17:30;17.30;99.90
16995;DHT22;8614;48.522;9.206;2023-05-07T17:19:57;17.20;99.90
16995;DHT22;8614;48.522;9.206;2023-05-07T17:22:26;17.20;99.90
16995;DHT22;8614;48.522;9.206;2023-05-07T17:24:53;17.10;99.90